Time;durP1;ratioP1;P1;durP2;ratioP2;P2;SDS_P1;SDS_P2;PMS_P1;PMS_P2;Temp;Humidity;BMP_temperature;BMP_pressure;BME280_temperature;BME280_humidity;BME280_pressure;Samples;Min_cycle;Max_cycle;Signal;HPM_P1;HPM_P2
2023/02/16 00:01:42;;;;;;;3.85;1.35;;;;;;;15.63;86.86;100117.06;7395690;19;20011;-62
2023/02/16 00:04:18;;;;;;;12.63;1.48;;;;;;;14.08;95.70;100121.41;7398833;19;20042;-62
2023/02/16 00:06:45;;;;;;;1.10;0.65;;;;;;;14.15;97.17;100116.16;7396160;19;20377;-62
2023/02/16 00:09:11;;;;;;;1.08;0.85;;;;;;;14.41;96.17;100113.38;7396300;19;20026;-62
2023/02/16 00:14:25;;;;;;;0.17;0.17;;;;;;;14.88;92.83;100112.75;7394453;19;20353;-62
2023/02/16 00:16:56;;;;;;;0.30;0.30;;;;;;;14.71;95.39;100122.28;7394752;19;20376;-62
2023/02/16 00:19:33;;;;;;;0.57;0.30;;;;;;;15.64;91.09;100118.56;7393437;19;20010;-62
2023/02/16 00:22:00;;;;;;;0.50;0.40;;;;;;;15.75;90.85;100118.63;7394326;19;20475;-62
2023/02/16 00:24:28;;;;;;;0.57;0.57;;;;;;;15.57;92.30;100113.47;7394708;19;20017;-63
2023/02/16 00:26:55;;;;;;;0.85;0.50;;;;;;;16.23;88.37;100119.28;7395110;19;20029;-62
2023/02/16 00:29:26;;;;;;;1.10;0.60;;;;;;;16.12;88.02;100119.25;7394610;19;20010;-62
2023/02/16 00:31:54;;;;;;;1.40;1.15;;;;;;;15.78;90.54;100112.78;7394128;19;20014;-62
2023/02/16 00:34:33;;;;;;;0.17;0.17;;;;;;;15.76;90.75;100111.75;7391480;19;20011;-62
2023/02/16 00:37:02;;;;;;;0.40;0.40;;;;;;;16.26;89.63;100109.84;7393300;19;20047;-62
2023/02/16 00:39:29;;;;;;;12.15;0.70;;;;;;;16.59;85.71;100100.69;7393866;19;20022;-62
2023/02/16 00:42:00;;;;;;;0.35;0.22;;;;;;;16.34;88.07;100096.81;7394642;19;20014;-62
2023/02/16 00:44:42;;;;;;;1.40;0.65;;;;;;;15.87;89.31;100097.75;7395005;19;20336;-62
2023/02/16 00:47:14;;;;;;;;;;;;;;;16.30;87.94;100096.31;7394732;19;20010;-62
2023/02/16 00:49:40;;;;;;;0.10;0.00;;;;;;;16.00;89.53;100100.06;7394142;19;19915;-62
2023/02/16 00:52:15;;;;;;;0.40;0.40;;;;;;;16.25;88.79;100091.44;7394325;19;20007;-62
2023/02/16 00:54:41;;;;;;;1.23;0.17;;;;;;;16.74;85.11;100084.31;7392243;19;20074;-62
2023/02/16 00:57:15;;;;;;;0.32;0.15;;;;;;;17.36;80.47;100088.56;7393265;19;20680;-62
2023/02/16 00:59:41;;;;;;;0.82;0.32;;;;;;;16.61;82.71;100086.91;7391827;19;20010;-62
2023/02/16 01:02:07;;;;;;;0.32;0.25;;;;;;;16.38;83.84;100090.94;7391018;19;20018;-62
2023/02/16 01:04:33;;;;;;;0.20;0.20;;;;;;;16.79;81.72;100074.34;7393847;19;20025;-62
2023/02/16 01:12:40;;;;;;;1.63;0.65;;;;;;;16.85;80.47;100066.69;7391660;19;20031;-62
2023/02/16 01:15:11;;;;;;;0.20;0.10;;;;;;;16.55;81.44;100060.81;7393230;19;20484;-62
2023/02/16 01:17:38;;;;;;;0.10;0.10;;;;;;;16.72;79.10;100058.75;7392272;19;20014;-62
2023/02/16 01:20:17;;;;;;;0.30;0.30;;;;;;;16.73;79.16;100056.72;7393691;19;20087;-62
2023/02/16 01:22:43;;;;;;;7.32;0.43;;;;;;;16.93;77.57;100056.44;7393026;19;20358;-63
2023/02/16 01:25:09;;;;;;;0.20;0.20;;;;;;;16.74;78.58;100044.94;7395854;19;20018;-57
2023/02/16 01:27:37;;;;;;;0.20;0.20;;;;;;;17.44;75.31;100044.50;7392967;19;20045;-57
2023/02/16 01:30:05;;;;;;;0.20;0.20;;;;;;;17.59;73.76;100039.34;7389833;19;20015;-62
2023/02/16 01:32:32;;;;;;;1.77;0.28;;;;;;;16.50;77.28;100037.03;7392543;19;20014;-62
2023/02/16 01:34:58;;;;;;;0.63;0.40;;;;;;;16.54;77.81;100043.19;7395154;19;20361;-62
2023/02/16 01:37:24;;;;;;;1.48;0.45;;;;;;;16.71;78.11;100045.22;7392829;19;20086;-62
2023/02/16 01:39:50;;;;;;;0.30;0.20;;;;;;;16.18;80.50;100038.53;7393625;19;20014;-62
2023/02/16 01:42:23;;;;;;;0.85;0.43;;;;;;;16.32;80.21;100036.75;7393824;19;20021;-62
2023/02/16 01:44:55;;;;;;;0.30;0.20;;;;;;;16.44;79.93;100027.81;7393693;19;20032;-62
2023/02/16 01:47:36;;;;;;;0.15;0.15;;;;;;;16.17;80.25;100019.38;7393283;19;20007;-62
2023/02/16 01:50:22;;;;;;;2.40;0.47;;;;;;;16.34;79.94;100023.72;7391008;19;20090;-62
2023/02/16 01:52:54;;;;;;;0.70;0.38;;;;;;;15.88;82.20;100018.59;7390198;19;20021;-62
2023/02/16 01:55:29;;;;;;;0.17;0.10;;;;;;;15.68;84.42;100013.16;7393908;19;20014;-62
2023/02/16 01:58:16;;;;;;;0.40;0.40;;;;;;;15.18;88.32;100004.56;7393016;19;20368;-62
2023/02/16 02:00:52;;;;;;;0.10;0.10;;;;;;;16.17;82.88;100003.28;7390720;19;20015;-62
2023/02/16 02:06:41;;;;;;;0.25;0.25;;;;;;;16.08;81.67;99983.09;7393908;19;20044;-62
2023/02/16 02:09:24;;;;;;;4.03;0.60;;;;;;;16.12;83.09;99978.75;7398690;19;20018;-62
2023/02/16 02:12:07;;;;;;;0.20;0.20;;;;;;;16.89;79.88;99977.16;7398104;19;20443;-62
2023/02/16 02:14:37;;;;;;;3.97;1.08;;;;;;;16.64;80.84;99985.41;7398777;19;20472;-62
2023/02/16 02:17:12;;;;;;;0.75;0.47;;;;;;;16.45;81.64;99984.38;7398088;19;20094;-62
2023/02/16 02:19:51;;;;;;;0.30;0.30;;;;;;;16.22;83.56;99980.03;7398204;19;20010;-62
2023/02/16 02:25:38;;;;;;;0.30;0.30;;;;;;;16.17;85.20;99969.56;7400429;19;20003;-62
2023/02/16 02:28:12;;;;;;;0.47;0.30;;;;;;;15.98;87.89;99957.31;7397186;19;20014;-62
2023/02/16 02:31:00;;;;;;;0.40;0.40;;;;;;;17.01;83.41;99950.50;7397408;19;20031;-62
2023/02/16 02:33:35;;;;;;;0.75;0.68;;;;;;;16.39;86.32;99961.13;7394864;19;20514;-62
2023/02/16 02:36:05;;;;;;;0.40;0.40;;;;;;;16.59;86.08;99949.59;7399948;19;20018;-63
2023/02/16 02:38:55;;;;;;;0.55;0.30;;;;;;;16.37;86.44;99952.41;7396204;19;20035;-62
2023/02/16 02:44:23;;;;;;;1.95;0.45;;;;;;;16.29;88.34;99943.00;7396832;19;20022;-63
2023/02/16 02:46:50;;;;;;;2.03;0.75;;;;;;;16.09;90.21;99934.81;7396756;19;20022;-62
2023/02/16 02:49:16;;;;;;;0.45;0.45;;;;;;;16.24;91.37;99935.31;7395420;19;20014;-62
2023/02/16 02:51:43;;;;;;;0.43;0.40;;;;;;;15.40;95.35;99935.78;7396521;19;20038;-62
2023/02/16 03:00:40;;;;;;;0.30;0.30;;;;;;;16.81;91.49;99905.81;7395518;19;20509;-62
2023/02/16 03:03:16;;;;;;;4.82;1.23;;;;;;;17.70;85.51;99901.25;7395638;19;20014;-62
2023/02/16 03:06:12;;;;;;;0.40;0.40;;;;;;;18.14;80.17;99909.34;7400631;19;20022;-62
2023/02/16 03:08:42;;;;;;;2.35;0.95;;;;;;;18.47;77.48;99897.00;7401636;19;20364;-62
2023/02/16 03:14:04;;;;;;;0.77;0.38;;;;;;;17.30;81.31;99896.38;7395536;19;20017;-62
2023/02/16 03:16:33;;;;;;;;;;;;;;;17.67;81.67;99896.66;7398951;19;20010;-62
2023/02/16 03:30:10;;;;;;;4.30;0.70;;;;;;;14.92;100.00;99871.38;7394690;19;20027;-62
2023/02/16 03:32:37;;;;;;;0.15;0.15;;;;;;;15.23;100.00;99876.78;7395668;19;20014;-61
2023/02/16 03:35:04;;;;;;;11.27;0.95;;;;;;;16.43;95.95;99874.50;7397699;19;20015;-61
2023/02/16 03:37:31;;;;;;;0.63;0.40;;;;;;;16.71;93.04;99868.03;7395891;19;20502;-61
2023/02/16 03:42:52;;;;;;;8.00;0.73;;;;;;;15.88;98.22;99852.09;7396229;19;20368;-62
2023/02/16 03:45:20;;;;;;;0.38;0.38;;;;;;;17.44;88.06;99853.03;7399444;19;20014;-61
2023/02/16 03:47:46;;;;;;;0.65;0.47;;;;;;;15.76;95.88;99853.41;7395975;19;20010;-62
2023/02/16 03:50:12;;;;;;;0.75;0.30;;;;;;;15.62;99.33;99857.22;7395690;19;20329;-62
2023/02/16 03:52:38;;;;;;;0.73;0.52;;;;;;;15.70;98.58;99856.19;7396177;19;20025;-61
2023/02/16 03:55:05;;;;;;;2.65;0.63;;;;;;;16.62;93.39;99850.19;7398318;19;20014;-61
2023/02/16 03:57:31;;;;;;;0.38;0.35;;;;;;;16.58;93.37;99849.69;7394704;19;20364;-62
2023/02/16 03:59:57;;;;;;;0.40;0.40;;;;;;;16.37;92.78;99847.69;7395727;19;20021;-62
2023/02/16 04:02:26;;;;;;;0.75;0.32;;;;;;;16.08;97.45;99849.03;7394364;19;20014;-62
2023/02/16 04:04:52;;;;;;;0.17;0.17;;;;;;;15.99;97.03;99840.09;7396261;19;20055;-62
2023/02/16 04:07:18;;;;;;;0.85;0.57;;;;;;;15.17;100.00;99840.31;7397333;19;20015;-62
2023/02/16 04:09:45;;;;;;;3.10;1.15;;;;;;;15.46;100.00;99839.13;7395533;19;20358;-62
2023/02/16 04:14:57;;;;;;;0.20;0.20;;;;;;;15.76;97.73;99828.13;7396189;19;20086;-62
2023/02/16 04:17:23;;;;;;;0.20;0.15;;;;;;;15.67;99.66;99829.16;7393389;19;20014;-62
2023/02/16 04:19:49;;;;;;;1.85;0.70;;;;;;;15.33;100.00;99835.25;7394219;19;20467;-61
2023/02/16 04:22:16;;;;;;;1.30;0.47;;;;;;;15.70;98.92;99818.94;7394928;19;20017;-61
2023/02/16 04:24:42;;;;;;;0.68;0.20;;;;;;;15.84;98.97;99823.53;7396553;19;20362;-62
2023/02/16 04:27:08;;;;;;;0.73;0.60;;;;;;;16.44;93.82;99825.41;7395377;19;20018;-61
2023/02/16 04:29:34;;;;;;;0.80;0.45;;;;;;;16.19;95.32;99823.72;7392654;19;20339;-61
2023/02/16 04:32:00;;;;;;;0.10;0.10;;;;;;;16.35;94.99;99814.44;7393640;19;20387;-61
2023/02/16 04:34:26;;;;;;;0.10;0.10;;;;;;;16.44;93.59;99816.19;7392493;19;20345;-62
2023/02/16 04:36:52;;;;;;;0.10;0.10;;;;;;;16.00;95.29;99817.13;7394023;19;20015;-62
2023/02/16 04:39:19;;;;;;;0.20;0.20;;;;;;;16.68;91.74;99808.72;7394232;19;20011;-62
2023/02/16 04:41:45;;;;;;;0.90;0.43;;;;;;;16.76;91.64;99811.00;7394924;19;20015;-61
2023/02/16 04:44:11;;;;;;;0.28;0.28;;;;;;;16.17;93.62;99805.84;7395081;19;20073;-61
2023/02/16 04:46:37;;;;;;;0.47;0.47;;;;;;;16.02;95.30;99800.53;7394081;19;20482;-61
2023/02/16 04:49:04;;;;;;;1.08;0.50;;;;;;;15.90;95.50;99799.00;7393981;19;20019;-61
2023/02/16 04:51:30;;;;;;;0.40;0.30;;;;;;;15.39;97.56;99793.91;7394221;19;20021;-62
2023/02/16 04:53:56;;;;;;;0.10;0.10;;;;;;;15.45;99.30;99803.13;7392627;19;20019;-62
2023/02/16 04:56:22;;;;;;;1.10;0.38;;;;;;;16.19;94.17;99795.63;7398476;19;20013;-62
2023/02/16 04:58:48;;;;;;;1.00;0.43;;;;;;;15.72;96.61;99796.75;7394762;19;20007;-62
2023/02/16 05:01:19;;;;;;;1.08;0.80;;;;;;;15.80;96.48;99794.94;7394042;19;20364;-62
2023/02/16 05:03:46;;;;;;;0.25;0.25;;;;;;;16.31;93.54;99794.28;7393905;19;20018;-62
2023/02/16 05:06:12;;;;;;;0.25;0.25;;;;;;;15.70;96.18;99791.63;7399210;19;20455;-62
2023/02/16 05:08:38;;;;;;;0.30;0.30;;;;;;;15.36;99.43;99787.28;7399678;19;20019;-62
2023/02/16 05:16:33;;;;;;;0.75;0.35;;;;;;;17.49;86.83;99767.00;7393572;19;20014;-62
2023/02/16 05:18:59;;;;;;;1.10;0.60;;;;;;;17.88;83.69;99770.22;7392744;19;20014;-62
2023/02/16 05:21:31;;;;;;;0.20;0.20;;;;;;;17.94;82.58;99760.44;7393164;19;20372;-61
2023/02/16 05:24:15;;;;;;;0.10;0.10;;;;;;;16.59;90.71;99763.25;7393851;19;20019;-63
2023/02/16 05:26:42;;;;;;;0.20;0.20;;;;;;;17.00;88.69;99763.28;7394265;19;20018;-62
2023/02/16 05:29:08;;;;;;;0.63;0.20;;;;;;;16.04;94.95;99769.09;7392922;19;20030;-62
2023/02/16 05:31:34;;;;;;;0.22;0.22;;;;;;;15.63;98.13;99766.88;7392510;19;20106;-62
2023/02/16 05:34:00;;;;;;;1.50;0.63;;;;;;;16.24;94.79;99761.09;7391315;19;20015;-62
2023/02/16 05:36:26;;;;;;;0.65;0.20;;;;;;;16.41;94.08;99761.03;7392976;19;20021;-62
2023/02/16 05:38:53;;;;;;;0.57;0.32;;;;;;;16.75;92.54;99758.84;7392602;19;20018;-62
2023/02/16 05:41:25;;;;;;;0.20;0.20;;;;;;;16.76;92.22;99749.13;7395767;19;20018;-62
2023/02/16 05:43:52;;;;;;;0.85;0.30;;;;;;;17.52;86.10;99752.66;7400374;19;20010;-62
2023/02/16 05:46:21;;;;;;;0.25;0.20;;;;;;;17.35;87.95;99747.13;7399966;19;20006;-62
2023/02/16 05:48:47;;;;;;;6.15;0.38;;;;;;;17.02;89.98;99744.59;7399399;19;20470;-62
2023/02/16 05:51:13;;;;;;;5.82;0.50;;;;;;;16.83;90.31;99738.06;7398697;19;20025;-62
2023/02/16 05:53:40;;;;;;;0.30;0.30;;;;;;;15.81;96.20;99745.91;7398263;19;20086;-62
2023/02/16 05:56:06;;;;;;;0.35;0.30;;;;;;;15.11;100.00;99735.75;7403652;19;20351;-62
2023/02/16 05:58:32;;;;;;;0.40;0.30;;;;;;;15.05;100.00;99732.16;7400485;19;20019;-61
2023/02/16 06:00:58;;;;;;;1.65;0.52;;;;;;;16.03;100.00;99731.81;7400275;19;20014;-62
2023/02/16 06:03:25;;;;;;;1.17;0.35;;;;;;;16.52;97.08;99744.16;7399063;19;20007;-62
2023/02/16 06:05:56;;;;;;;0.45;0.45;;;;;;;16.33;96.93;99741.13;7402592;19;20015;-62
2023/02/16 06:08:22;;;;;;;;;;;;;;;15.99;98.90;99739.72;7403029;19;20070;-62
2023/02/16 06:10:49;;;;;;;2.15;0.55;;;;;;;15.52;100.00;99741.63;7399200;19;19926;-62
2023/02/16 06:13:16;;;;;;;0.22;0.13;;;;;;;16.08;99.64;99733.06;7397661;19;20015;-62
2023/02/16 06:15:42;;;;;;;0.52;0.52;;;;;;;15.36;100.00;99730.38;7399032;19;20341;-62
2023/02/16 06:18:10;;;;;;;1.00;0.40;;;;;;;14.78;100.00;99740.56;7399449;19;20043;-62
2023/02/16 06:20:37;;;;;;;0.57;0.50;;;;;;;14.81;100.00;99734.69;7398823;19;20031;-62
2023/02/16 06:23:05;;;;;;;1.02;0.52;;;;;;;15.49;100.00;99736.25;7398465;19;20347;-62
2023/02/16 06:25:31;;;;;;;0.47;0.47;;;;;;;15.15;100.00;99727.09;7402273;19;20376;-62
2023/02/16 06:27:58;;;;;;;2.33;0.57;;;;;;;15.42;100.00;99736.78;7397868;19;20340;-62
2023/02/16 06:30:25;;;;;;;6.53;1.27;;;;;;;16.30;100.00;99736.56;7398309;19;20014;-62
2023/02/16 06:32:51;;;;;;;0.75;0.52;;;;;;;15.59;100.00;99734.75;7398929;19;20007;-62
2023/02/16 06:35:17;;;;;;;0.25;0.25;;;;;;;15.72;100.00;99729.34;7402585;19;20078;-62
2023/02/16 06:37:44;;;;;;;0.60;0.30;;;;;;;15.25;100.00;99731.16;7398523;19;20006;-62
2023/02/16 06:40:13;;;;;;;0.15;0.15;;;;;;;16.21;100.00;99727.66;7399096;19;20010;-62
2023/02/16 06:42:40;;;;;;;1.38;0.30;;;;;;;15.66;100.00;99731.38;7399029;19;20364;-62
2023/02/16 06:45:07;;;;;;;6.32;0.63;;;;;;;15.49;100.00;99725.03;7400455;19;20340;-62
2023/02/16 06:47:35;;;;;;;3.58;1.30;;;;;;;15.52;100.00;99732.44;7398579;19;20475;-62
2023/02/16 06:50:02;;;;;;;1.75;0.40;;;;;;;16.09;100.00;99732.53;7399293;19;20006;-63
2023/02/16 06:52:28;;;;;;;0.63;0.20;;;;;;;16.90;100.00;99725.50;7396510;19;20022;-63
2023/02/16 06:54:54;;;;;;;0.60;0.60;;;;;;;16.63;100.00;99725.16;7401200;19;20018;-63
2023/02/16 06:57:20;;;;;;;2.60;0.45;;;;;;;16.68;99.55;99724.38;7398413;19;20026;-63
2023/02/16 06:59:46;;;;;;;0.35;0.35;;;;;;;16.37;100.00;99730.38;7398266;19;20011;-62
2023/02/16 07:02:13;;;;;;;1.13;0.47;;;;;;;16.65;100.00;99733.84;7397825;19;20011;-62
2023/02/16 07:22:49;;;;;;;6.10;0.45;;;;;;;14.33;100.00;99729.25;7425422;19;20337;-84
2023/02/16 07:25:15;;;;;;;0.35;0.30;;;;;;;15.45;100.00;99739.34;7429352;19;20011;-84
2023/02/16 07:27:41;;;;;;;1.88;1.17;;;;;;;16.37;100.00;99736.00;7429400;19;20021;-84
2023/02/16 07:30:08;;;;;;;1.40;0.47;;;;;;;15.32;100.00;99727.84;7428847;19;20356;-84
2023/02/16 07:32:34;;;;;;;0.68;0.30;;;;;;;15.68;100.00;99715.56;7428690;19;20021;-85
2023/02/16 07:35:00;;;;;;;3.88;0.68;;;;;;;16.03;100.00;99729.00;7424727;19;20479;-85
2023/02/16 07:37:26;;;;;;;1.85;0.55;;;;;;;15.76;100.00;99727.81;7425299;19;20021;-85
2023/02/16 07:39:53;;;;;;;5.43;1.17;;;;;;;15.42;100.00;99726.28;7429642;19;20025;-85
2023/02/16 07:42:20;;;;;;;0.40;0.35;;;;;;;15.15;100.00;99741.88;7423562;19;20077;-85
2023/02/16 07:44:46;;;;;;;0.75;0.20;;;;;;;15.63;100.00;99736.00;7426101;19;20077;-85
2023/02/16 07:47:13;;;;;;;1.83;0.57;;;;;;;15.92;100.00;99735.41;7427662;19;20010;-84
2023/02/16 07:49:40;;;;;;;1.27;0.40;;;;;;;16.36;100.00;99739.34;7427312;19;20007;-84
2023/02/16 07:52:06;;;;;;;0.10;0.10;;;;;;;17.42;100.00;99743.00;7428546;19;20042;-85
2023/02/16 07:54:32;;;;;;;1.38;0.82;;;;;;;17.69;100.00;99738.44;7425569;19;20460;-85
2023/02/16 07:56:58;;;;;;;0.90;0.63;;;;;;;17.71;100.00;99747.88;7427080;19;20011;-84
2023/02/16 07:59:24;;;;;;;1.65;0.50;;;;;;;17.38;100.00;99745.34;7424881;19;20022;-85
2023/02/16 08:01:51;;;;;;;1.75;0.38;;;;;;;17.91;100.00;99747.38;7427805;19;20018;-84
2023/02/16 08:04:17;;;;;;;1.75;0.40;;;;;;;17.59;100.00;99746.44;7424939;19;20021;-84
2023/02/16 08:06:44;;;;;;;0.93;0.30;;;;;;;18.37;100.00;99734.28;7428759;19;20010;-85
2023/02/16 08:09:10;;;;;;;5.18;0.85;;;;;;;18.83;99.78;99734.72;7430316;19;20014;-84
2023/02/16 08:11:37;;;;;;;1.55;0.73;;;;;;;18.55;100.00;99739.22;7426644;19;20467;-84
2023/02/16 08:14:03;;;;;;;0.65;0.60;;;;;;;18.29;99.66;99750.28;7425493;19;20014;-84
2023/02/16 08:16:29;;;;;;;1.25;0.25;;;;;;;18.42;100.00;99750.38;7428132;19;20358;-84
2023/02/16 08:18:57;;;;;;;1.42;0.40;;;;;;;19.08;98.32;99754.38;7426120;19;20022;-84
2023/02/16 08:21:28;;;;;;;0.30;0.10;;;;;;;20.18;91.12;99749.56;7422258;19;20010;-85
2023/02/16 08:26:42;;;;;;;0.55;0.55;;;;;;;19.87;89.28;99778.72;7426501;19;20031;-84
2023/02/16 08:29:12;;;;;;;1.38;1.17;;;;;;;19.77;91.05;99771.97;7427008;19;20472;-84
2023/02/16 08:31:38;;;;;;;3.30;0.75;;;;;;;19.38;93.71;99764.13;7427518;19;20435;-84
2023/02/16 08:34:04;;;;;;;0.77;0.35;;;;;;;19.94;91.22;99774.47;7399495;19;20026;-89
2023/02/16 08:36:34;;;;;;;1.23;0.73;;;;;;;19.41;92.77;99785.66;7398276;19;20011;-85
2023/02/16 08:39:06;;;;;;;3.28;0.85;;;;;;;20.81;85.83;99765.50;7398513;19;20515;-88
2023/02/16 08:49:01;;;;;;;2.65;0.82;;;;;;;18.59;100.00;99773.53;7408019;19;20006;-85
2023/02/16 08:51:38;;;;;;;0.77;0.45;;;;;;;17.50;100.00;99754.44;7403773;19;20010;-86
2023/02/16 08:54:20;;;;;;;2.60;0.45;;;;;;;17.64;100.00;99770.97;7406667;19;20078;-84
2023/02/16 08:57:28;;;;;;;0.40;0.28;;;;;;;17.05;100.00;99773.72;7407512;19;20038;-85
2023/02/16 09:03:07;;;;;;;2.40;0.50;;;;;;;17.93;100.00;99770.16;7402969;19;20018;-85
2023/02/16 09:09:19;;;;;;;3.75;0.82;;;;;;;18.65;100.00;99772.16;7416467;19;20013;-85
2023/02/16 09:16:38;;;;;;;;;;;;;;;;;;;;;
2023/02/16 09:26:37;;;;;;;4.97;0.75;;;;;;;18.43;100.00;99788.59;7394989;19;20037;-82
2023/02/16 09:29:06;;;;;;;9.88;1.17;;;;;;;18.45;100.00;99786.03;7393844;19;20018;-83
2023/02/16 09:31:36;;;;;;;1.17;0.20;;;;;;;18.75;100.00;99797.94;7394072;19;20091;-82
2023/02/16 09:34:12;;;;;;;3.88;0.70;;;;;;;18.16;100.00;99810.94;7393652;19;20023;-83
2023/02/16 09:36:38;;;;;;;2.75;0.73;;;;;;;19.06;100.00;99805.69;7394880;19;20029;-83
2023/02/16 09:39:06;;;;;;;0.68;0.25;;;;;;;18.27;100.00;99800.81;7394056;19;20019;-83
2023/02/16 09:42:01;;;;;;;1.27;0.95;;;;;;;18.22;100.00;99799.56;7394294;19;20506;-83
2023/02/16 09:44:48;;;;;;;8.68;1.23;;;;;;;18.62;100.00;99803.50;7390610;19;20019;-83
2023/02/16 09:47:28;;;;;;;1.45;0.17;;;;;;;19.27;100.00;99800.25;7392289;19;20015;-83
2023/02/16 09:49:57;;;;;;;0.82;0.38;;;;;;;19.58;100.00;99799.50;7393537;19;20346;-83
2023/02/16 09:52:27;;;;;;;1.13;0.52;;;;;;;20.67;98.20;99797.97;7396157;19;20512;-84
2023/02/16 09:54:59;;;;;;;0.88;0.35;;;;;;;20.40;97.43;99799.28;7394156;19;20045;-83
2023/02/16 09:58:03;;;;;;;4.47;0.52;;;;;;;19.99;100.00;99787.75;7391262;19;20018;-86
2023/02/16 10:00:32;;;;;;;0.88;0.47;;;;;;;20.42;100.00;99802.38;7391227;19;20034;-81
2023/02/16 10:03:27;;;;;;;0.15;0.10;;;;;;;19.35;100.00;99804.00;7393737;19;20039;-82
2023/02/16 10:06:09;;;;;;;3.05;0.77;;;;;;;19.17;100.00;99804.75;7393574;19;20030;-82
2023/02/16 10:08:54;;;;;;;4.88;1.55;;;;;;;19.83;100.00;99803.72;7391908;19;20018;-83
2023/02/16 10:11:44;;;;;;;3.92;1.13;;;;;;;20.26;100.00;99809.09;7393348;19;20019;-82
2023/02/16 10:14:45;;;;;;;1.83;0.93;;;;;;;18.58;100.00;99814.31;7393339;19;20460;-82
2023/02/16 10:17:39;;;;;;;1.77;0.85;;;;;;;18.83;100.00;99815.78;7393317;19;20022;-82
2023/02/16 10:20:24;;;;;;;0.50;0.47;;;;;;;18.06;100.00;99821.00;7392837;19;20325;-82
2023/02/16 10:23:38;;;;;;;4.60;0.82;;;;;;;19.68;100.00;99809.13;7394482;19;20010;-82
2023/02/16 10:26:30;;;;;;;8.93;1.23;;;;;;;21.06;100.00;99809.25;7391858;19;20022;-82
2023/02/16 10:29:26;;;;;;;1.05;0.70;;;;;;;20.10;100.00;99821.44;7395483;19;20051;-82
2023/02/16 10:32:25;;;;;;;1.08;0.32;;;;;;;20.04;100.00;99817.97;7391575;19;20035;-82
2023/02/16 10:35:09;;;;;;;2.30;1.02;;;;;;;20.64;100.00;99824.53;7392171;19;20075;-82
2023/02/16 10:38:03;;;;;;;0.70;0.47;;;;;;;20.43;100.00;99815.19;7390736;19;20026;-82
2023/02/16 10:40:51;;;;;;;0.50;0.47;;;;;;;18.87;100.00;99816.22;7395117;19;20490;-83
2023/02/16 10:43:50;;;;;;;1.00;0.77;;;;;;;19.05;100.00;99815.47;7390254;19;20010;-81
2023/02/16 10:46:25;;;;;;;1.42;0.57;;;;;;;19.34;100.00;99803.25;7390406;19;20017;-82
2023/02/16 10:48:53;;;;;;;1.00;0.70;;;;;;;21.67;100.00;99804.16;7390418;19;20010;-82
2023/02/16 10:51:22;;;;;;;0.30;0.30;;;;;;;21.44;99.67;99798.28;7391050;19;20014;-82
2023/02/16 10:53:59;;;;;;;2.05;0.38;;;;;;;22.32;94.65;99781.03;7394322;19;20015;-81
2023/02/16 10:56:45;;;;;;;1.92;0.28;;;;;;;20.98;100.00;99802.72;7390515;19;20014;-81
2023/02/16 10:59:23;;;;;;;1.35;0.40;;;;;;;20.72;100.00;99791.44;7391848;19;20100;-82
2023/02/16 11:01:56;;;;;;;1.02;0.55;;;;;;;20.96;100.00;99788.31;7390974;19;20019;-82
2023/02/16 11:04:53;;;;;;;1.55;0.52;;;;;;;22.19;97.81;99794.56;7391534;19;20032;-82
2023/02/16 11:07:21;;;;;;;0.52;0.30;;;;;;;22.20;95.74;99788.34;7388598;19;20022;-81
2023/02/16 11:09:52;;;;;;;0.20;0.20;;;;;;;20.90;100.00;99795.41;7391467;19;20045;-81
2023/02/16 11:12:38;;;;;;;;;;;;;;;20.59;100.00;99788.63;7390751;19;20011;-81
2023/02/16 11:15:22;;;;;;;1.15;0.40;;;;;;;21.61;100.00;99790.13;7393462;19;19936;-82
2023/02/16 11:18:05;;;;;;;4.35;0.52;;;;;;;22.02;98.37;99794.28;7384848;19;20014;-80
2023/02/16 11:20:34;;;;;;;2.25;0.50;;;;;;;21.88;98.42;99799.25;7383664;19;20018;-80
2023/02/16 11:23:22;;;;;;;1.13;0.40;;;;;;;22.43;96.31;99811.19;7386624;19;20046;-80
2023/02/16 11:26:01;;;;;;;4.13;1.67;;;;;;;23.05;92.48;99813.75;7387649;19;20054;-81
2023/02/16 11:28:35;;;;;;;1.10;0.57;;;;;;;25.12;82.90;99810.38;7384310;19;20019;-81
2023/02/16 11:31:12;;;;;;;0.30;0.30;;;;;;;23.61;83.41;99819.19;7385095;19;20023;-81
2023/02/16 11:33:42;;;;;;;0.43;0.20;;;;;;;22.59;96.01;99822.06;7382707;19;20045;-81
2023/02/16 11:36:31;;;;;;;2.35;0.30;;;;;;;23.18;90.67;99822.13;7388011;19;20485;-81
2023/02/16 11:39:01;;;;;;;0.50;0.50;;;;;;;22.54;94.51;99817.28;7385961;19;20022;-81
2023/02/16 11:41:28;;;;;;;0.60;0.10;;;;;;;22.14;96.98;99821.00;7385401;19;20085;-82
2023/02/16 11:43:55;;;;;;;0.10;0.10;;;;;;;23.52;88.86;99828.28;7383222;19;20436;-81
2023/02/16 11:46:23;;;;;;;0.10;0.00;;;;;;;25.00;81.37;99819.97;7385609;19;20070;-80
2023/02/16 11:48:50;;;;;;;0.40;0.30;;;;;;;25.28;78.95;99833.88;7385211;19;20018;-81
2023/02/16 11:51:29;;;;;;;0.20;0.20;;;;;;;25.70;76.76;99837.63;7385238;19;20090;-81
2023/02/16 11:54:02;;;;;;;0.32;0.28;;;;;;;25.61;75.15;99831.81;7380926;19;20696;-81
2023/02/16 11:56:34;;;;;;;0.17;0.08;;;;;;;26.42;72.41;99820.28;7382521;19;20589;-81
2023/02/16 11:59:19;;;;;;;0.45;0.10;;;;;;;26.62;70.01;99821.94;7385628;19;20078;-81
2023/02/16 12:02:25;;;;;;;0.57;0.13;;;;;;;24.69;74.48;99822.13;7383000;19;20014;-82
2023/02/16 12:05:03;;;;;;;0.38;0.20;;;;;;;24.75;75.12;99831.28;7384085;19;20029;-81
2023/02/16 12:07:55;;;;;;;1.40;0.35;;;;;;;24.01;79.28;99834.41;7386202;19;20015;-81
2023/02/16 12:10:33;;;;;;;0.10;0.10;;;;;;;24.03;78.24;99828.13;7392272;19;20019;-82
2023/02/16 12:13:38;;;;;;;1.30;0.20;;;;;;;23.07;86.92;99828.16;7389684;19;20022;-82
2023/02/16 12:16:16;;;;;;;5.18;1.00;;;;;;;24.37;80.34;99824.88;7386818;19;20035;-82
2023/02/16 12:19:06;;;;;;;11.07;1.25;;;;;;;25.65;75.55;99812.19;7388981;19;20033;-82
2023/02/16 12:21:49;;;;;;;0.32;0.30;;;;;;;25.81;72.00;99819.28;7391368;19;20023;-80
2023/02/16 12:24:30;;;;;;;2.25;0.47;;;;;;;26.33;70.57;99824.53;7393705;19;20018;-81
2023/02/16 12:26:59;;;;;;;;;;;;;;;26.29;70.05;99829.19;7390867;19;20015;-81
2023/02/16 12:29:53;;;;;;;12.65;1.75;;;;;;;26.40;69.30;99822.22;7390121;19;19926;-81
2023/02/16 12:32:41;;;;;;;3.03;0.60;;;;;;;24.56;75.03;99813.84;7391198;19;20183;-80
2023/02/16 12:35:29;;;;;;;0.38;0.20;;;;;;;24.08;77.73;99813.72;7390880;19;20018;-81
2023/02/16 12:38:27;;;;;;;13.45;1.85;;;;;;;24.66;74.93;99811.91;7390215;19;20026;-81
2023/02/16 12:41:08;;;;;;;13.95;3.45;;;;;;;24.66;76.89;99817.59;7389972;19;20011;-82
2023/02/16 12:43:45;;;;;;;4.22;1.92;;;;;;;24.82;74.49;99814.16;7390840;19;20097;-80
2023/02/16 12:46:28;;;;;;;15.57;2.67;;;;;;;24.21;78.40;99812.78;7394003;19;20043;-80
2023/02/16 12:49:03;;;;;;;12.82;2.65;;;;;;;22.56;91.84;99826.03;7390723;19;20023;-80
2023/02/16 12:51:35;;;;;;;12.52;2.50;;;;;;;22.72;93.87;99823.28;7389908;19;20025;-80
2023/02/16 12:54:14;;;;;;;16.17;4.75;;;;;;;24.09;87.95;99818.09;7388860;19;20022;-80
2023/02/16 12:56:46;;;;;;;4.25;1.42;;;;;;;24.35;82.33;99819.00;7390316;19;20523;-82
2023/02/16 13:00:08;;;;;;;5.22;1.73;;;;;;;24.54;81.31;99813.63;7391985;19;20014;-82
2023/02/16 13:02:43;;;;;;;5.35;1.17;;;;;;;25.83;74.98;99805.19;7387211;19;20025;-81
2023/02/16 13:05:16;;;;;;;3.25;0.98;;;;;;;26.33;72.61;99801.69;7391043;19;20014;-78
2023/02/16 13:07:48;;;;;;;0.75;0.38;;;;;;;26.57;70.30;99802.97;7387897;19;20022;-82
2023/02/16 13:10:17;;;;;;;8.00;1.58;;;;;;;26.88;69.30;99809.84;7390708;19;20043;-79
2023/02/16 13:12:49;;;;;;;2.38;1.60;;;;;;;25.57;71.70;99812.25;7391308;19;20018;-79
2023/02/16 13:15:32;;;;;;;0.85;0.43;;;;;;;27.14;67.19;99805.50;7392931;19;20018;-79
2023/02/16 13:18:17;;;;;;;1.08;0.20;;;;;;;29.61;59.30;99794.25;7390841;19;20506;-79
2023/02/16 13:21:06;;;;;;;2.47;0.82;;;;;;;30.38;57.54;99783.91;7389911;19;20010;-83
2023/02/16 13:23:36;;;;;;;3.80;1.08;;;;;;;28.26;59.33;99787.16;7388566;19;20330;-83
2023/02/16 13:26:18;;;;;;;1.98;0.57;;;;;;;26.83;63.30;99790.84;7390200;19;20847;-80
2023/02/16 13:29:06;;;;;;;1.25;1.13;;;;;;;26.99;62.24;99797.91;7387577;19;20395;-83
2023/02/16 13:31:56;;;;;;;2.33;0.65;;;;;;;27.14;61.21;99801.91;7390697;19;20015;-82
2023/02/16 13:34:46;;;;;;;0.73;0.38;;;;;;;24.57;67.36;99809.66;7390506;19;20032;-84
2023/02/16 13:37:22;;;;;;;2.60;0.45;;;;;;;27.27;63.26;99802.28;7389217;19;20018;-81